Latest Weather Observations for Kuitpo

IDS60801

Issued at 12:05 pm CDT Tuesday 25 November 2014 (issued every 30 minutes, with the page automatically refreshed every 10 minutes)

About weather observations | Map of weather stations | Latest weather observations for SA | Other Formats
Station Details ID: 023887 Name: KUITPO FOREST RESERVE Lat: -35.17 Lon: 138.68 Height: 365.0 m
Data from the previous 72 hours. | See also: Recent months at Kuitpo
Date/Time
CDT
Temp
°C
App
Temp
°C
Dew
Point
Rel
Hum
%
Delta-T
°C
Wind Press
QNH
hPa
Press
MSL
hPa
Rain
since 9 am
mm
Dir
 
Spd
km/h
Gust
km/h
Spd
kts
Gust
kts
25/12:00pm 15.2 11.5 6.5 56 4.3 SW 15 28 8 15 1021.8 1021.1 0.0
25/11:30am 15.9 12.3 8.2 60 4.0 SW 17 24 9 13 1022.1 1021.3 0.0
25/11:00am 14.5 10.5 8.2 66 3.2 SW 19 28 10 15 1022.2 1021.4 0.0
25/10:30am 14.9 11.9 7.7 62 3.6 WSW 13 20 7 11 1022.2 1021.4 0.0
25/10:00am 14.2 10.7 7.0 62 3.6 WSW 15 24 8 13 1022.0 1021.2 0.0
25/09:30am 13.9 10.9 6.0 59 3.8 WSW 11 20 6 11 1022.0 1021.2 0.0
25/09:00am 13.2 9.8 6.1 62 3.4 WSW 13 20 7 11 1021.8 1021.1 0.0
25/08:30am 13.3 10.2 5.7 60 3.6 W 11 17 6 9 1021.4 1020.7 0.0
25/08:00am 12.6 9.6 6.0 64 3.2 SSW 11 17 6 9 1021.2 1020.5 0.0
25/07:30am 11.6 9.8 8.1 79 1.7 SW 7 11 4 6 1021.0 1020.3 0.0
25/07:00am 10.7 9.0 8.5 86 1.1 W 7 9 4 5 1020.8 1020.1 0.0
25/06:30am 9.8 7.7 8.1 89 0.8 W 9 11 5 6 1020.4 1019.6 0.0
25/06:00am 9.5 7.7 8.1 91 0.7 W 7 11 4 6 1019.9 1019.1 0.0
25/05:30am 9.0 6.8 7.8 92 0.6 WSW 9 11 5 6 1019.4 1018.6 0.0
25/05:00am 9.1 6.9 7.9 92 0.6 WSW 9 13 5 7 1018.9 1018.2 0.0
25/04:30am 9.5 6.9 7.9 90 0.8 WSW 11 17 6 9 1018.8 1018.1 0.0
25/04:00am 9.3 6.7 7.6 89 0.8 WSW 11 15 6 8 1018.6 1017.9 0.0
25/03:30am 9.3 6.6 7.4 88 0.9 WSW 11 13 6 7 1018.5 1017.8 0.0
25/03:00am 9.5 6.8 7.4 87 1.0 WSW 11 13 6 7 1018.5 1017.8 0.0
25/02:30am 9.4 6.7 7.2 86 1.1 SW 11 17 6 9 1018.4 1017.7 0.0
25/02:00am 9.6 6.5 7.4 86 1.1 WSW 13 17 7 9 1018.6 1017.9 0.0
25/01:30am 10.1 7.4 7.3 83 1.4 WSW 11 19 6 10 1018.6 1017.9 0.0
25/01:00am 10.4 6.9 7.1 80 1.6 SW 15 24 8 13 1018.7 1018.0 0.0
25/12:30am 10.4 6.4 6.7 78 1.8 SSW 17 26 9 14 1018.7 1018.0 0.0
25/12:00am 10.5 6.5 6.6 77 1.9 SSW 17 24 9 13 1018.7 1018.0 0.0
 
Date/Time
CDT
Temp
°C
App
Temp
°C
Dew
Point
Rel
Hum
%
Delta-T
°C
Wind Press
QNH
hPa
Press
MSL
hPa
Rain
since 9 am
mm
Dir
 
Spd
km/h
Gust
km/h
Spd
kts
Gust
kts
24/11:30pm 10.5 6.4 6.3 75 2.0 SW 17 26 9 14 1018.7 1018.0 0.0
24/11:00pm 10.6 6.1 6.2 74 2.1 SW 19 33 10 18 1018.5 1017.8 0.0
24/10:30pm 10.8 6.3 6.0 72 2.3 SW 19 32 10 17 1018.4 1017.7 0.0
24/10:00pm 10.7 6.6 6.3 74 2.1 SSW 17 26 9 14 1018.0 1017.2 0.0
24/09:30pm 10.9 7.6 6.5 74 2.1 SSW 13 22 7 12 1017.7 1016.9 0.0
24/09:00pm 11.5 7.4 6.2 70 2.5 SSW 17 24 9 13 1017.4 1016.6 0.0
24/08:30pm 12.0 8.0 6.5 69 2.7 SSW 17 28 9 15 1017.1 1016.3 0.0
24/08:00pm 13.0 8.6 6.4 64 3.2 SSW 19 26 10 14 1016.5 1015.7 0.0
24/07:30pm 14.5 8.8 5.0 53 4.5 WSW 24 39 13 21 1015.8 1015.0 0.0
24/07:00pm 15.1 9.5 5.6 53 4.6 WSW 24 37 13 20 1015.3 1014.5 0.0
24/06:30pm 15.8 10.2 5.4 50 5.1 WSW 24 43 13 23 1015.0 1014.2 0.0
24/06:11pm 16.1 10.3 8.1 59 4.1 WSW 28 48 15 26 1014.8 1014.0 0.0
24/06:00pm 16.6 11.7 8.6 59 4.2 WSW 24 41 13 22 1014.8 1014.0 0.0
24/05:34pm 16.3 10.5 8.0 58 4.3 W 28 46 15 25 1014.6 1013.8 0.0
24/05:30pm 16.6 11.5 9.3 62 3.9 W 26 46 14 25 1014.6 1013.8 0.0
24/05:16pm 16.2 10.4 7.9 58 4.3 W 28 46 15 25 1014.5 1013.7 0.0
24/05:00pm 17.5 11.8 8.4 55 4.8 WSW 28 44 15 24 1014.4 1013.6 0.0
24/04:45pm 17.0 10.9 6.8 51 5.1 WSW 28 50 15 27 1014.2 1013.4 0.0
24/04:30pm 17.7 11.3 5.3 44 6.1 WSW 28 44 15 24 1013.9 1013.1 0.0
24/04:03pm 17.8 11.6 6.0 46 5.9 WSW 28 46 15 25 1013.8 1013.0 0.0
24/04:00pm 17.4 11.6 6.3 48 5.6 WSW 26 46 14 25 1013.8 1013.0 0.0
24/03:38pm 16.6 10.7 7.3 54 4.7 WSW 28 46 15 25 1013.7 1012.9 0.0
24/03:30pm 17.6 12.6 7.9 53 5.0 WSW 24 35 13 19 1013.7 1012.9 0.0
24/03:00pm 17.5 12.3 10.1 62 4.0 W 28 44 15 24 1013.8 1013.0 0.0
24/02:30pm 17.0 10.5 6.5 50 5.3 WSW 30 48 16 26 1013.7 1012.9 0.0
24/02:24pm 18.2 11.7 6.7 47 5.8 WSW 30 48 16 26 1013.6 1012.7 0.0
24/02:00pm 18.5 13.6 9.8 57 4.7 WSW 26 39 14 21 1013.5 1012.6 0.0
24/01:30pm 18.7 14.3 10.3 58 4.6 WSW 24 44 13 24 1013.1 1012.3 0.0
24/01:00pm 17.9 14.1 11.2 65 3.7 WSW 22 35 12 19 1013.1 1012.3 0.0
24/12:30pm 15.8 12.8 12.7 82 1.7 W 20 30 11 16 1013.0 1012.2 0.0
24/12:00pm 15.2 11.6 12.9 86 1.3 WSW 24 35 13 19 1012.9 1012.1 0.0
24/11:30am 18.6 15.0 11.7 64 3.9 WSW 22 35 12 19 1012.4 1011.6 0.0
24/11:00am 19.2 16.1 12.2 64 4.0 WSW 20 30 11 16 1012.2 1011.4 0.0
24/10:30am 18.3 15.0 10.9 62 4.1 WSW 19 28 10 15 1012.1 1011.3 0.0
24/10:00am 18.4 16.1 10.5 60 4.3 SSW 13 19 7 10 1012.0 1011.2 0.0
24/09:30am 17.6 14.5 10.2 62 4.0 SSW 17 22 9 12 1011.9 1011.1 0.0
24/09:00am 16.4 13.2 10.0 66 3.4 S 17 24 9 13 1011.5 1010.7 0.2
24/08:30am 15.8 12.3 10.3 70 3.0 S 19 30 10 16 1010.9 1010.0 0.2
24/08:00am 14.4 11.7 10.4 77 2.1 S 15 30 8 16 1010.6 1009.7 0.2
24/07:30am 13.9 11.1 10.1 78 2.0 S 15 24 8 13 1010.0 1009.2 0.2
24/07:00am 13.6 10.2 10.6 82 1.6 SSE 19 33 10 18 1009.3 1008.5 0.2
24/06:30am 13.2 10.0 11.3 88 1.0 S 19 35 10 19 1009.1 1008.3 0.2
24/06:00am 13.2 10.1 11.6 90 0.9 SSE 19 32 10 17 1008.3 1007.4 0.2
24/05:30am 13.2 9.7 10.9 86 1.2 SSE 20 37 11 20 1007.7 1006.8 0.2
24/05:00am 13.9 10.8 11.6 86 1.3 SE 19 28 10 15 1007.2 1006.4 0.2
24/04:30am 14.0 10.8 11.9 87 1.2 SE 20 30 11 16 1006.7 1005.9 0.2
24/04:00am 14.5 10.6 10.7 78 2.0 SSE 22 35 12 19 1007.1 1006.3 0.2
24/03:30am 15.5 11.8 9.6 68 3.1 SE 19 32 10 17 1006.5 1005.7 0.2
24/03:00am 16.7 12.9 7.6 55 4.7 ESE 17 22 9 12 1006.7 1005.9 0.2
24/02:30am 16.1 13.2 8.1 59 4.1 E 13 19 7 10 1007.1 1006.3 0.2
24/02:00am 16.4 13.2 8.6 60 4.1 E 15 20 8 11 1007.4 1006.6 0.2
24/01:30am 16.4 12.6 8.9 61 3.9 E 19 26 10 14 1007.4 1006.6 0.2
24/01:00am 16.2 11.5 9.2 63 3.7 ESE 24 33 13 18 1008.1 1007.2 0.2
24/12:30am 16.2 11.5 9.4 64 3.6 SE 24 33 13 18 1008.5 1007.6 0.2
24/12:00am 16.1 11.3 10.2 68 3.2 ESE 26 35 14 19 1008.6 1007.7 0.2
 
Date/Time
CDT
Temp
°C
App
Temp
°C
Dew
Point
Rel
Hum
%
Delta-T
°C
Wind Press
QNH
hPa
Press
MSL
hPa
Rain
since 9 am
mm
Dir
 
Spd
km/h
Gust
km/h
Spd
kts
Gust
kts
23/11:30pm 16.6 12.3 9.3 62 3.9 ESE 22 35 12 19 1009.0 1008.2 0.2
23/11:00pm 17.1 11.4 8.3 56 4.6 ESE 28 39 15 21 1009.4 1008.6 0.2
23/10:30pm 17.1 12.6 10.2 64 3.7 ESE 24 35 13 19 1009.7 1008.9 0.2
23/10:00pm 17.5 13.6 10.9 65 3.6 SE 22 32 12 17 1009.7 1008.9 0.2
23/09:30pm 17.4 14.0 11.2 67 3.4 ESE 20 32 11 17 1009.7 1008.9 0.2
23/09:00pm 17.7 14.2 12.2 70 3.1 ESE 22 32 12 17 1009.5 1008.7 0.2
23/08:30pm 19.2 16.1 12.2 64 4.0 ESE 20 28 11 15 1009.3 1008.5 0.2
23/08:00pm 20.5 17.6 12.2 59 4.7 ESE 19 26 10 14 1009.1 1008.3 0.2
23/07:30pm 21.6 18.2 12.5 56 5.3 ESE 22 32 12 17 1008.9 1008.1 0.2
23/07:00pm 22.4 19.5 12.4 53 5.8 ESE 19 26 10 14 1009.1 1008.3 0.2
23/06:30pm 23.5 20.0 12.2 49 6.5 E 22 33 12 18 1008.9 1008.1 0.2
23/06:00pm 24.4 22.2 8.0 35 8.9 ESE 9 17 5 9 1009.7 1008.9 0.2
23/05:30pm 24.1 22.8 7.7 35 8.8 SE 4 9 2 5 1010.1 1009.3 0.2
23/05:00pm 23.7 22.3 8.9 39 8.1 WSW 6 7 3 4 1010.2 1009.4 0.2
23/04:30pm 23.8 22.0 7.0 34 8.9 W 6 11 3 6 1011.0 1010.1 0.2
23/04:00pm 23.5 20.6 6.7 34 8.8 WSW 11 15 6 8 1011.0 1010.1 0.2
23/03:30pm 23.9 20.8 8.7 38 8.3 W 15 22 8 12 1012.1 1011.3 0.2
23/03:00pm 23.8 20.5 6.6 33 9.0 WNW 13 20 7 11 1012.2 1011.4 0.2
23/02:30pm 25.1 22.7 8.6 35 9.0 W 11 17 6 9 1011.6 1010.8 0.2
23/02:00pm 24.9 22.8 8.4 35 9.0 WSW 9 17 5 9 1011.5 1010.7 0.2
23/01:30pm 23.6 21.2 8.5 38 8.2 SW 11 20 6 11 1011.9 1011.1 0.2
23/01:00pm 22.7 19.7 9.1 42 7.4 WSW 15 22 8 12 1012.3 1011.5 0.2
23/12:30pm 23.2 20.8 9.9 43 7.4 W 13 20 7 11 1012.4 1011.6 0.2
23/12:00pm 22.8 20.4 9.9 44 7.1 W 13 20 7 11 1012.4 1011.6 0.2
23/11:30am 23.0 21.0 11.4 48 6.6 W 13 24 7 13 1012.2 1011.4 0.2
23/11:00am 22.1 19.9 9.3 44 7.0 W 11 15 6 8 1011.9 1011.1 0.2
23/10:30am 22.2 20.4 9.4 44 7.0 W 9 13 5 7 1011.7 1010.9 0.2
23/10:00am 20.7 19.8 10.5 52 5.6 E 6 9 3 5 1011.5 1010.7 0.2
23/09:30am 19.0 17.5 9.2 53 5.2 SE 7 11 4 6 1011.7 1010.9 0.0
23/09:00am 17.2 16.1 10.1 63 3.8 SSE 6 11 3 6 1011.8 1011.0 4.0
23/08:30am 16.4 15.8 12.4 77 2.2 SW 7 11 4 6 1011.9 1011.1 4.0
23/08:00am 15.2 15.9 12.1 82 1.7 CALM 0 0 0 0 1011.8 1011.0 4.0
23/07:30am 13.9 13.4 12.1 89 1.0 NE 6 7 3 4 1011.7 1010.9 4.0
23/07:00am 12.3 12.5 12.0 98 0.2 NE 2 7 1 4 1011.7 1010.9 4.0
23/06:30am 10.8 9.7 10.8 100 0.0 NNE 7 11 4 6 1011.8 1011.0 4.0
23/06:00am 10.7 9.6 10.7 100 0.0 NE 7 9 4 5 1011.6 1010.8 4.0
23/05:30am 10.8 9.0 10.8 100 0.0 NE 11 13 6 7 1011.4 1010.6 4.0
23/05:00am 11.0 9.6 11.0 100 0.0 NE 9 13 5 7 1011.2 1010.3 4.0
23/04:30am 11.4 9.8 11.4 100 0.0 NE 11 17 6 9 1011.1 1010.2 4.0
23/04:00am 11.5 10.3 11.5 100 0.0 E 9 13 5 7 1011.0 1010.1 4.0
23/03:30am 11.7 10.5 11.7 100 0.0 E 9 11 5 6 1010.9 1010.0 4.0
23/03:00am 11.8 11.0 11.8 100 0.0 SE 7 9 4 5 1011.1 1010.2 4.0
23/02:30am 11.6 10.4 11.6 100 0.0 SE 9 9 5 5 1011.2 1010.3 4.0
23/02:00am 11.8 10.7 11.8 100 0.0 ESE 9 13 5 7 1011.1 1010.2 4.0
23/01:30am 11.9 10.8 11.9 100 0.0 SE 9 13 5 7 1011.3 1010.5 4.0
23/01:00am 11.9 10.8 11.9 100 0.0 ESE 9 11 5 6 1011.7 1010.9 4.0
23/12:30am 12.3 11.3 12.3 100 0.0 SSE 9 13 5 7 1011.9 1011.1 4.0
23/12:00am 12.4 11.4 12.2 99 0.1 SSE 9 15 5 8 1011.9 1011.1 4.0
 
Date/Time
CDT
Temp
°C
App
Temp
°C
Dew
Point
Rel
Hum
%
Delta-T
°C
Wind Press
QNH
hPa
Press
MSL
hPa
Rain
since 9 am
mm
Dir
 
Spd
km/h
Gust
km/h
Spd
kts
Gust
kts
22/11:30pm 12.6 11.2 12.1 97 0.3 SSE 11 17 6 9 1011.9 1011.1 4.0
22/11:00pm 12.8 11.2 11.7 93 0.6 SSE 11 17 6 9 1011.8 1011.0 4.0
22/10:30pm 13.1 11.0 11.2 88 1.0 SSE 13 19 7 10 1011.8 1011.0 4.0
22/10:00pm 13.6 11.5 11.3 86 1.2 SSE 13 19 7 10 1011.6 1010.8 4.0
22/09:30pm 13.9 11.8 11.2 84 1.5 SSE 13 19 7 10 1011.2 1010.3 4.0
22/09:00pm 14.4 12.6 12.1 86 1.3 SSE 13 20 7 11 1010.7 1009.8 4.0
22/08:30pm 15.3 14.4 13.8 91 0.9 S 11 15 6 8 1010.2 1009.4 4.0
22/08:00pm 16.9 16.1 14.0 83 1.7 S 11 17 6 9 1009.5 1008.7 4.0
22/07:30pm 19.6 18.9 13.3 67 3.7 W 9 13 5 7 1009.0 1008.2 4.0
22/07:00pm 20.5 19.6 12.7 61 4.5 W 9 15 5 8 1008.7 1007.8 4.0
22/06:30pm 21.1 19.7 13.5 62 4.5 W 13 19 7 10 1008.3 1007.4 4.0
22/06:00pm 21.7 20.1 13.9 61 4.6 WSW 15 20 8 11 1008.1 1007.2 4.0
22/05:30pm 20.5 18.8 13.5 64 4.1 WSW 15 22 8 12 1008.0 1007.1 4.0
22/05:00pm 21.3 19.9 15.6 70 3.5 WSW 17 26 9 14 1007.7 1006.8 4.0
22/04:30pm 20.7 20.2 16.9 79 2.4 WNW 15 30 8 16 1007.2 1006.4 4.0
22/04:00pm 21.3 20.1 16.0 72 3.2 W 17 26 9 14 1006.7 1005.9 4.0
22/03:30pm 20.2 20.9 17.0 82 2.0 WSW 9 13 5 7 1007.0 1006.2 4.0
22/03:00pm 18.8 20.3 16.6 87 1.3 WNW 4 11 2 6 1006.7 1005.9 3.4
22/02:35pm 21.0 18.5 15.1 69 3.5 W 22 37 12 20 1009.0 1008.2 2.6
22/02:30pm 21.4 21.7 15.0 67 3.9 N 7 15 4 8 1006.8 1006.0 2.6
22/02:00pm 20.0 19.8 14.6 71 3.2 NNW 9 17 5 9 1007.2 1006.4 2.6
22/01:30pm 20.5 18.4 15.3 72 3.1 WNW 20 30 11 16 1007.8 1006.9 2.6
22/01:00pm 19.5 16.9 15.8 79 2.2 WNW 24 41 13 22 1007.3 1006.5 2.4
22/12:41pm 19.3 15.4 14.3 73 2.9 WNW 28 46 15 25 1007.4 1006.6 2.0
22/12:40pm 20.4 16.8 15.2 72 3.1 WNW 28 44 15 24 1007.7 1006.8 1.4
22/12:30pm 23.1 23.2 16.6 67 4.0 NNW 11 22 6 12 1006.7 1005.9 0.8

Other Formats:

Comma delimited format used in spreadsheet applications
http://www.bom.gov.au/fwo/IDS60801/IDS60801.94683.axf

JavaScript Object Notation format (JSON) in row-major order
http://www.bom.gov.au/fwo/IDS60801/IDS60801.94683.json